Time;durP1;ratioP1;P1;durP2;ratioP2;P2;SDS_P1;SDS_P2;PMS_P1;PMS_P2;Temp;Humidity;BMP_temperature;BMP_pressure;BME280_temperature;BME280_humidity;BME280_pressure;Samples;Min_cycle;Max_cycle;Signal;HPM_P1;HPM_P2
2021/10/07 00:02:03;;;;;;;10.20;5.70;;;;;;;3.93;56.85;101414.16;115972;1206;22941;-60
2021/10/07 00:04:32;;;;;;;9.90;4.60;;;;;;;3.90;56.70;101411.06;115943;1206;137242;-60
2021/10/07 00:07:00;;;;;;;10.10;5.30;;;;;;;3.89;56.63;101410.55;116019;1206;23461;-60
2021/10/07 00:09:28;;;;;;;13.60;5.30;;;;;;;3.87;56.82;101415.61;115821;1199;138818;-60
2021/10/07 00:11:56;;;;;;;14.70;4.80;;;;;;;3.85;56.81;101417.61;116035;1206;22235;-60
2021/10/07 00:14:24;;;;;;;9.80;4.90;;;;;;;3.83;56.96;101414.74;115953;1200;22201;-60
2021/10/07 00:16:53;;;;;;;10.90;4.90;;;;;;;3.81;56.92;101417.17;115989;1206;136586;-60
2021/10/07 00:19:21;;;;;;;10.40;5.30;;;;;;;3.78;57.01;101422.14;115975;1205;22336;-60
2021/10/07 00:21:49;;;;;;;8.70;4.90;;;;;;;3.77;57.02;101418.84;116112;1204;136783;-61
2021/10/07 00:24:17;;;;;;;11.30;4.30;;;;;;;3.75;57.08;101421.83;116185;1204;22192;-60
2021/10/07 00:26:47;;;;;;;13.50;5.40;;;;;;;3.71;57.10;101423.27;116162;1204;22361;-60
2021/10/07 00:32:17;;;;;;;9.30;4.60;;;;;;;3.66;57.45;101424.94;116241;1204;23150;-60
2021/10/07 00:39:53;;;;;;;13.20;5.00;;;;;;;3.55;57.82;101427.52;116087;1204;136814;-60
2021/10/07 00:42:21;;;;;;;10.50;4.40;;;;;;;3.51;57.92;101430.64;116172;1204;22894;-59
2021/10/07 00:44:49;;;;;;;8.50;4.30;;;;;;;3.47;58.13;101426.66;116647;1200;22391;-59
2021/10/07 00:47:17;;;;;;;12.60;4.50;;;;;;;3.44;58.13;101427.13;116503;1200;136487;-59
2021/10/07 00:49:45;;;;;;;9.20;4.40;;;;;;;3.41;58.13;101430.66;116651;1193;22302;-59
2021/10/07 00:52:15;;;;;;;11.10;4.50;;;;;;;3.37;58.26;101431.52;116570;1200;136901;-59
2021/10/07 00:54:52;;;;;;;9.90;3.90;;;;;;;3.32;58.27;101433.09;116650;1200;22331;-59
2021/10/07 00:57:21;;;;;;;12.60;5.40;;;;;;;3.28;58.34;101439.25;112751;1193;136714;-59
2021/10/07 00:59:50;;;;;;;8.50;4.10;;;;;;;3.25;58.58;101440.67;116638;1200;22261;-59
2021/10/07 01:02:18;;;;;;;14.80;4.60;;;;;;;3.20;58.52;101440.25;116681;1200;22215;-59
2021/10/07 01:04:47;;;;;;;8.80;4.90;;;;;;;3.18;58.36;101438.86;116572;1200;136776;-59
2021/10/07 01:07:16;;;;;;;12.00;3.60;;;;;;;3.17;58.60;101442.02;116627;1200;22487;-59
2021/10/07 01:09:45;;;;;;;12.60;4.90;;;;;;;3.15;58.63;101444.92;116508;1200;137050;-59
2021/10/07 01:12:13;;;;;;;8.00;3.80;;;;;;;3.15;58.59;101449.98;116594;1200;24497;-59
2021/10/07 01:14:53;;;;;;;8.60;4.80;;;;;;;3.14;58.60;101449.77;116681;1200;22319;-59
2021/10/07 01:17:23;;;;;;;14.30;4.10;;;;;;;3.14;58.49;101452.80;116527;1200;136535;-59
2021/10/07 01:19:52;;;;;;;7.60;4.00;;;;;;;3.12;58.67;101455.65;116706;1200;23232;-60
2021/10/07 01:22:21;;;;;;;10.10;4.00;;;;;;;3.11;58.72;101456.48;116544;1200;137544;-59
2021/10/07 01:24:50;;;;;;;8.40;4.70;;;;;;;3.11;58.66;101455.85;116678;1200;22355;-58
2021/10/07 01:27:20;;;;;;;11.80;4.60;;;;;;;3.08;58.82;101458.39;116667;1200;22319;-59
2021/10/07 01:29:55;;;;;;;8.40;3.90;;;;;;;3.09;58.52;101461.39;116490;1200;136687;-59
2021/10/07 01:32:23;;;;;;;12.60;4.10;;;;;;;3.08;58.68;101460.10;116717;1200;22340;-59
2021/10/07 01:34:51;;;;;;;16.40;5.20;;;;;;;3.09;58.88;101462.36;116529;1200;137973;-59
2021/10/07 01:37:19;;;;;;;9.00;4.10;;;;;;;3.07;58.65;101465.38;116690;1200;22264;-59
2021/10/07 01:39:47;;;;;;;9.90;4.80;;;;;;;3.06;58.63;101468.39;116462;1200;138800;-59
2021/10/07 01:42:15;;;;;;;10.10;3.80;;;;;;;3.06;58.60;101469.95;116654;1200;22380;-59
2021/10/07 01:44:43;;;;;;;12.70;4.40;;;;;;;3.05;58.61;101470.92;116660;1200;22118;-59
2021/10/07 01:47:11;;;;;;;8.50;4.20;;;;;;;3.05;58.62;101471.73;116541;1200;137372;-59
2021/10/07 01:49:39;;;;;;;11.30;4.70;;;;;;;3.04;58.77;101475.52;116677;1200;22254;-59
2021/10/07 01:52:07;;;;;;;8.00;4.40;;;;;;;3.04;58.73;101473.40;116578;1200;137402;-59
2021/10/07 01:54:35;;;;;;;12.10;4.10;;;;;;;3.03;58.69;101475.17;116709;1200;22307;-59
2021/10/07 01:57:04;;;;;;;9.90;4.00;;;;;;;3.02;58.66;101477.30;116650;1200;23148;-59
2021/10/07 01:59:32;;;;;;;8.00;4.40;;;;;;;3.01;58.82;101486.34;116551;1193;137729;-59
2021/10/07 02:02:00;;;;;;;8.20;4.10;;;;;;;3.00;59.03;101490.51;116664;1200;22317;-59
2021/10/07 02:04:30;;;;;;;8.20;4.80;;;;;;;2.98;58.98;101491.80;116509;1200;137292;-59
2021/10/07 02:06:59;;;;;;;8.30;4.30;;;;;;;2.97;59.01;101494.42;116569;1201;23072;-59
2021/10/07 02:09:27;;;;;;;7.60;4.40;;;;;;;2.95;59.13;101493.59;116531;1200;137674;-59
2021/10/07 02:11:55;;;;;;;8.30;4.30;;;;;;;2.94;59.18;101491.88;116689;1200;22320;-59
2021/10/07 02:14:24;;;;;;;9.00;4.00;;;;;;;2.93;59.16;101494.35;116641;1200;22314;-59
2021/10/07 02:16:52;;;;;;;12.40;4.30;;;;;;;2.91;59.34;101490.80;116495;1200;136679;-59
2021/10/07 02:19:20;;;;;;;8.50;4.50;;;;;;;2.91;59.43;101487.61;116660;1200;22711;-59
2021/10/07 02:21:49;;;;;;;9.30;4.00;;;;;;;2.90;59.46;101489.86;116530;1200;138395;-63
2021/10/07 02:24:17;;;;;;;9.00;4.60;;;;;;;2.85;59.51;101492.61;116617;1200;23100;-59
2021/10/07 02:26:45;;;;;;;9.30;4.40;;;;;;;2.83;59.54;101486.58;116642;1201;22805;-60
2021/10/07 02:29:13;;;;;;;9.50;4.90;;;;;;;2.82;59.64;101491.52;116564;1200;137007;-59
2021/10/07 02:31:41;;;;;;;6.80;3.60;;;;;;;2.80;59.77;101494.79;116609;1187;22366;-59
2021/10/07 02:34:09;;;;;;;8.40;4.20;;;;;;;2.78;59.82;101493.20;116535;1200;137289;-59
2021/10/07 02:36:37;;;;;;;12.80;4.20;;;;;;;2.75;59.84;101491.86;116615;1200;22263;-59
2021/10/07 02:39:05;;;;;;;11.20;4.80;;;;;;;2.75;59.66;101496.23;116703;1200;23159;-59
2021/10/07 02:41:33;;;;;;;10.60;4.00;;;;;;;2.71;59.80;101498.05;116573;1200;137145;-59
2021/10/07 02:44:01;;;;;;;7.40;4.00;;;;;;;2.70;60.00;101499.76;116641;1200;23012;-59
2021/10/07 02:46:30;;;;;;;13.00;4.90;;;;;;;2.68;60.13;101503.75;116587;1193;137099;-59
2021/10/07 02:48:57;;;;;;;9.60;4.30;;;;;;;2.66;60.23;101503.98;116610;1200;22229;-59
2021/10/07 02:51:25;;;;;;;7.00;3.90;;;;;;;2.64;60.33;101506.73;116578;1200;137997;-59
2021/10/07 02:53:53;;;;;;;12.50;5.10;;;;;;;2.60;60.29;101506.08;116614;1200;22327;-59
2021/10/07 02:56:21;;;;;;;8.50;4.10;;;;;;;2.56;60.57;101508.07;116613;1200;23161;-59
2021/10/07 02:58:49;;;;;;;9.50;4.10;;;;;;;2.53;60.63;101508.44;116576;1200;136882;-59
2021/10/07 03:01:17;;;;;;;6.80;4.10;;;;;;;2.50;60.67;101507.84;116606;1200;22413;-59
2021/10/07 03:03:46;;;;;;;11.70;4.80;;;;;;;2.46;60.69;101507.77;116589;1200;137813;-61
2021/10/07 03:06:14;;;;;;;10.40;4.60;;;;;;;2.46;60.91;101511.08;116626;1200;22282;-59
2021/10/07 03:08:42;;;;;;;11.50;3.80;;;;;;;2.45;61.03;101510.48;116704;1200;23345;-59
2021/10/07 03:11:10;;;;;;;11.20;4.40;;;;;;;2.44;60.83;101513.58;116444;1200;138178;-59
2021/10/07 03:13:38;;;;;;;11.90;4.40;;;;;;;2.44;60.97;101513.06;116648;1200;23215;-59
2021/10/07 03:16:07;;;;;;;12.10;4.70;;;;;;;2.42;60.97;101509.82;116587;1200;137783;-59
2021/10/07 03:18:35;;;;;;;10.50;4.20;;;;;;;2.42;60.98;101514.22;116681;1200;23280;-59
2021/10/07 03:21:03;;;;;;;7.70;4.40;;;;;;;2.40;61.21;101513.42;116622;1200;22138;-59
2021/10/07 03:23:31;;;;;;;8.50;4.40;;;;;;;2.39;61.28;101515.03;116491;1200;138503;-59
2021/10/07 03:25:59;;;;;;;11.20;4.20;;;;;;;2.35;61.36;101512.85;116667;1200;22990;-59
2021/10/07 03:28:27;;;;;;;11.90;5.30;;;;;;;2.34;61.37;101518.97;116531;1200;137134;-59
2021/10/07 03:30:55;;;;;;;10.40;4.80;;;;;;;2.33;61.60;101518.36;116743;1200;22244;-59
2021/10/07 03:33:23;;;;;;;9.10;4.50;;;;;;;2.31;61.67;101517.64;116628;1200;22307;-59
2021/10/07 03:35:51;;;;;;;10.00;4.50;;;;;;;2.30;61.74;101520.98;116563;1200;136692;-60
2021/10/07 03:38:19;;;;;;;12.60;5.90;;;;;;;2.28;61.77;101528.56;116601;1200;22186;-59
2021/10/07 03:40:47;;;;;;;11.30;4.40;;;;;;;2.27;61.94;101526.36;116490;1201;138850;-59
2021/10/07 03:43:16;;;;;;;17.30;4.50;;;;;;;2.25;61.94;101528.29;116704;1200;22753;-59
2021/10/07 03:45:44;;;;;;;7.90;4.20;;;;;;;2.24;62.00;101530.59;116539;1200;138790;-59
2021/10/07 03:48:12;;;;;;;9.40;4.10;;;;;;;2.22;62.22;101530.58;116650;1200;22250;-60
2021/10/07 03:50:42;;;;;;;13.10;3.80;;;;;;;2.21;62.18;101527.98;116621;1200;22324;-60
2021/10/07 03:53:11;;;;;;;7.90;4.70;;;;;;;2.18;62.39;101529.19;116620;1200;138289;-60
2021/10/07 03:55:39;;;;;;;8.00;4.20;;;;;;;2.16;62.53;101524.77;116658;1200;22253;-60
2021/10/07 03:58:07;;;;;;;12.40;4.40;;;;;;;2.17;62.53;101523.45;116538;1200;137892;-60
2021/10/07 04:00:35;;;;;;;6.50;3.80;;;;;;;2.16;62.55;101523.98;116649;1194;22249;-60
2021/10/07 04:03:04;;;;;;;11.20;4.50;;;;;;;2.16;62.54;101521.93;116578;1200;22384;-60
2021/10/07 04:05:32;;;;;;;12.40;4.60;;;;;;;2.14;62.73;101525.82;116532;1193;137063;-60
2021/10/07 04:08:00;;;;;;;7.10;4.20;;;;;;;2.11;62.78;101521.96;116596;1200;22366;-59
2021/10/07 04:10:30;;;;;;;12.60;4.30;;;;;;;2.11;62.90;101521.83;116622;1200;137636;-60
2021/10/07 04:12:59;;;;;;;8.40;4.30;;;;;;;2.09;62.79;101521.09;116581;1200;22382;-59
2021/10/07 04:15:27;;;;;;;9.70;5.20;;;;;;;2.06;62.98;101521.05;116519;1201;22548;-60
2021/10/07 04:17:56;;;;;;;7.80;4.40;;;;;;;2.05;62.98;101525.61;116518;1200;138047;-59
2021/10/07 04:20:24;;;;;;;12.90;4.70;;;;;;;2.04;63.11;101528.09;116622;1201;22337;-59
2021/10/07 04:22:52;;;;;;;9.80;4.30;;;;;;;2.01;63.16;101531.73;116498;1201;137228;-60
2021/10/07 04:25:20;;;;;;;9.00;4.30;;;;;;;2.00;63.22;101530.48;116646;1201;22313;-60
2021/10/07 04:27:52;;;;;;;9.70;4.90;;;;;;;1.99;63.29;101536.13;116574;1200;138115;-60
2021/10/07 04:30:20;;;;;;;16.80;5.90;;;;;;;1.97;63.42;101535.06;116717;1186;22405;-59
2021/10/07 04:32:48;;;;;;;10.60;5.00;;;;;;;1.97;63.37;101540.44;116656;1200;22354;-60
2021/10/07 04:35:17;;;;;;;12.20;5.20;;;;;;;1.97;63.50;101548.50;116505;1200;137580;-60
2021/10/07 04:37:45;;;;;;;12.10;4.90;;;;;;;1.97;63.64;101547.63;116616;1200;22239;-59
2021/10/07 04:40:13;;;;;;;9.80;5.10;;;;;;;1.99;63.62;101550.41;116487;1200;138579;-60
2021/10/07 04:42:41;;;;;;;12.20;4.60;;;;;;;2.03;63.73;101549.70;116682;1193;22329;-59
2021/10/07 04:45:10;;;;;;;12.10;4.60;;;;;;;2.06;63.65;101547.38;116659;1200;23175;-59
2021/10/07 04:47:38;;;;;;;14.20;4.90;;;;;;;2.10;63.58;101547.86;116524;1200;137707;-60
2021/10/07 04:50:07;;;;;;;10.20;4.30;;;;;;;2.17;63.38;101547.81;116652;1200;22254;-59
2021/10/07 04:52:35;;;;;;;15.60;5.00;;;;;;;2.21;63.25;101544.65;116477;1200;138734;-60
2021/10/07 04:55:03;;;;;;;12.90;5.20;;;;;;;2.26;63.19;101547.73;116662;1200;22385;-59
2021/10/07 04:57:32;;;;;;;20.30;7.70;;;;;;;2.31;62.97;101549.05;116564;1201;23126;-60
2021/10/07 05:00:03;;;;;;;16.60;5.20;;;;;;;2.34;62.93;101554.55;116323;1200;137155;-60
2021/10/07 05:02:35;;;;;;;9.40;4.40;;;;;;;2.38;62.64;101554.59;116596;1200;22306;-60
2021/10/07 05:05:07;;;;;;;8.70;4.70;;;;;;;2.40;62.52;101552.27;116424;1200;136833;-60
2021/10/07 05:07:36;;;;;;;9.40;4.40;;;;;;;2.44;62.32;101556.40;116613;1200;22946;-61
2021/10/07 05:10:04;;;;;;;13.50;4.80;;;;;;;2.49;62.28;101558.83;116526;1200;137826;-59
2021/10/07 05:12:32;;;;;;;12.60;5.60;;;;;;;2.55;62.24;101560.59;116644;1193;22262;-58
2021/10/07 05:15:03;;;;;;;15.40;5.50;;;;;;;2.61;62.15;101565.11;116617;1201;22365;-59
2021/10/07 05:17:36;;;;;;;13.20;5.00;;;;;;;2.68;62.11;101562.48;116525;1200;136973;-58
2021/10/07 05:20:04;;;;;;;10.90;5.30;;;;;;;2.73;61.81;101561.98;116649;1200;22243;-58
2021/10/07 05:22:33;;;;;;;18.80;5.80;;;;;;;2.76;61.79;101563.73;116507;1200;138776;-58
2021/10/07 05:25:01;;;;;;;19.90;6.60;;;;;;;2.82;61.70;101567.45;116622;1200;22357;-58
2021/10/07 05:27:29;;;;;;;17.10;6.10;;;;;;;2.87;61.59;101573.55;116645;1201;22409;-59
2021/10/07 05:29:57;;;;;;;12.60;5.20;;;;;;;2.93;61.22;101570.84;116566;1200;136801;-58
2021/10/07 05:32:25;;;;;;;19.60;5.70;;;;;;;2.97;61.06;101571.66;116597;1200;22465;-59
2021/10/07 05:34:53;;;;;;;11.30;5.00;;;;;;;3.01;61.07;101571.45;116511;1200;137096;-59
2021/10/07 05:37:21;;;;;;;11.80;5.60;;;;;;;3.08;61.21;101577.09;116625;1200;22256;-62
2021/10/07 05:39:49;;;;;;;13.30;5.20;;;;;;;3.17;60.67;101576.92;116509;1200;137935;-62
2021/10/07 05:42:17;;;;;;;8.40;5.20;;;;;;;3.21;60.67;101577.22;116584;1200;22310;-59
2021/10/07 05:44:45;;;;;;;14.70;5.70;;;;;;;3.27;60.52;101578.98;116617;1200;22293;-58
2021/10/07 05:47:13;;;;;;;16.20;6.50;;;;;;;3.32;60.37;101579.29;112925;1200;137591;-59
2021/10/07 05:49:41;;;;;;;17.50;6.20;;;;;;;3.37;60.37;101582.23;112325;1200;22905;-59
2021/10/07 05:52:09;;;;;;;11.30;5.10;;;;;;;3.45;60.15;101583.31;116051;1199;137375;-60
2021/10/07 05:54:37;;;;;;;15.90;7.70;;;;;;;3.53;59.84;101588.00;116428;1200;23129;-61
2021/10/07 05:57:05;;;;;;;13.60;5.90;;;;;;;3.62;59.64;101588.17;116522;1200;22142;-60
2021/10/07 05:59:34;;;;;;;11.60;5.00;;;;;;;3.68;59.12;101586.24;116558;1195;138523;-61
2021/10/07 06:02:02;;;;;;;9.30;4.50;;;;;;;3.72;59.15;101584.52;116645;1200;23464;-60
2021/10/07 06:04:31;;;;;;;9.40;5.50;;;;;;;3.79;58.97;101585.91;116517;1200;136754;-60
2021/10/07 06:06:59;;;;;;;82.80;45.80;;;;;;;3.86;58.42;101586.81;116610;1200;22255;-60
2021/10/07 06:09:27;;;;;;;19.90;8.30;;;;;;;3.92;58.20;101584.52;116643;1200;22143;-60
2021/10/07 06:11:56;;;;;;;15.50;6.80;;;;;;;4.00;58.70;101587.09;116545;1200;137751;-60
2021/10/07 06:14:23;;;;;;;9.50;4.80;;;;;;;4.11;58.30;101588.83;116628;1193;22382;-60
2021/10/07 06:16:53;;;;;;;9.00;5.00;;;;;;;4.17;57.87;101591.05;116603;1199;137494;-60
2021/10/07 06:19:23;;;;;;;16.20;5.90;;;;;;;4.22;57.53;101587.96;116657;1200;22318;-60
2021/10/07 06:21:51;;;;;;;12.00;5.20;;;;;;;4.25;57.26;101586.93;116584;1201;139112;-60
2021/10/07 06:24:19;;;;;;;10.00;4.80;;;;;;;4.28;57.03;101588.73;116636;1200;22421;-60
2021/10/07 06:26:49;;;;;;;14.00;8.90;;;;;;;4.32;56.72;101592.45;116652;1200;22357;-60
2021/10/07 06:29:17;;;;;;;12.40;5.50;;;;;;;4.38;56.77;101593.80;116558;1200;137162;-60
2021/10/07 06:31:45;;;;;;;16.30;5.60;;;;;;;4.43;56.58;101592.15;116704;1200;23010;-61
2021/10/07 06:34:13;;;;;;;10.30;4.40;;;;;;;4.49;56.68;101594.89;116554;1200;137326;-60
2021/10/07 06:36:41;;;;;;;9.30;4.80;;;;;;;4.56;56.75;101596.41;116645;1200;22996;-60
2021/10/07 06:39:09;;;;;;;9.90;5.20;;;;;;;4.64;56.24;101595.73;116661;1200;23558;-60
2021/10/07 06:41:37;;;;;;;9.90;5.40;;;;;;;4.68;56.28;101596.73;116510;1200;137154;-60
2021/10/07 06:44:07;;;;;;;16.90;6.70;;;;;;;4.72;55.94;101602.29;116582;1201;22347;-60
2021/10/07 06:46:35;;;;;;;20.80;5.70;;;;;;;4.73;55.54;101603.94;116565;1201;137151;-60
2021/10/07 06:49:03;;;;;;;10.90;4.60;;;;;;;4.73;55.52;101601.75;116654;1200;22251;-60
2021/10/07 06:51:31;;;;;;;11.10;3.80;;;;;;;4.77;55.34;101604.81;116649;1200;22429;-60
2021/10/07 06:54:01;;;;;;;12.50;5.00;;;;;;;4.81;55.72;101598.59;116587;1200;137650;-60
2021/10/07 06:56:32;;;;;;;11.30;4.40;;;;;;;4.86;55.34;101601.75;116612;1200;22321;-60
2021/10/07 06:59:00;;;;;;;9.40;4.60;;;;;;;4.90;55.62;101602.02;116540;1200;137578;-60
2021/10/07 07:01:29;;;;;;;9.40;4.60;;;;;;;4.95;55.94;101598.55;116673;1200;22357;-60
2021/10/07 07:03:58;;;;;;;14.00;4.40;;;;;;;5.05;55.41;101604.18;116520;1200;137755;-60
2021/10/07 07:06:26;;;;;;;10.70;4.20;;;;;;;5.11;55.07;101601.48;116707;1194;22372;-60
2021/10/07 07:08:55;;;;;;;14.50;5.00;;;;;;;5.19;55.37;101600.17;116645;1200;22289;-60
2021/10/07 07:11:27;;;;;;;8.20;4.20;;;;;;;5.28;54.98;101600.60;116539;1201;136948;-60
2021/10/07 07:13:56;;;;;;;8.60;4.10;;;;;;;5.40;55.30;101601.64;116666;1201;22260;-60
2021/10/07 07:16:24;;;;;;;13.30;4.50;;;;;;;5.54;54.36;101601.87;116443;1200;137210;-60
2021/10/07 07:18:52;;;;;;;16.00;4.20;;;;;;;5.64;54.10;101602.13;116664;1200;22480;-60
2021/10/07 07:21:23;;;;;;;12.00;4.50;;;;;;;5.72;54.09;101601.23;116745;1200;23441;-60
2021/10/07 07:23:53;;;;;;;13.20;4.00;;;;;;;5.81;53.83;101602.13;116538;1200;137029;-60
2021/10/07 07:26:21;;;;;;;11.10;4.40;;;;;;;5.91;54.28;101603.36;116728;1201;22245;-60
2021/10/07 07:28:49;;;;;;;10.10;4.00;;;;;;;6.01;53.41;101604.03;116579;1200;137070;-60
2021/10/07 07:31:24;;;;;;;9.00;4.10;;;;;;;6.10;53.30;101604.55;116703;1200;22480;-61
2021/10/07 07:33:53;;;;;;;11.20;4.40;;;;;;;6.20;52.65;101607.33;116584;1200;137428;-60
2021/10/07 07:36:23;;;;;;;6.90;4.20;;;;;;;6.26;52.52;101605.61;116611;1193;22153;-60
2021/10/07 07:38:51;;;;;;;8.50;4.20;;;;;;;6.32;52.95;101609.16;116671;1200;22230;-60
2021/10/07 07:41:38;;;;;;;13.60;4.10;;;;;;;6.41;53.28;101611.74;116548;1200;136907;-61
2021/10/07 07:44:06;;;;;;;13.90;4.40;;;;;;;6.51;52.48;101609.70;116651;1200;22241;-61
2021/10/07 07:46:34;;;;;;;9.60;3.80;;;;;;;6.59;52.10;101611.45;116597;1200;137548;-61
2021/10/07 07:49:03;;;;;;;7.80;3.60;;;;;;;6.66;51.02;101613.71;116674;1200;22240;-61
2021/10/07 07:51:34;;;;;;;14.10;3.90;;;;;;;6.67;50.59;101616.75;116645;1200;22258;-61
2021/10/07 07:54:02;;;;;;;10.30;4.10;;;;;;;6.71;50.96;101610.77;116524;1200;139326;-61
2021/10/07 07:56:30;;;;;;;11.00;4.20;;;;;;;6.79;50.30;101616.83;116628;1200;22300;-61
2021/10/07 07:58:59;;;;;;;11.90;3.70;;;;;;;6.86;50.19;101611.87;116517;1200;137371;-61
2021/10/07 08:01:27;;;;;;;12.70;4.50;;;;;;;6.94;49.77;101611.95;116516;1200;24838;-61
2021/10/07 08:03:55;;;;;;;12.00;4.20;;;;;;;6.99;49.99;101612.05;116397;1199;140336;-61
2021/10/07 08:06:23;;;;;;;14.00;5.40;;;;;;;7.04;50.90;101611.98;116632;1200;22239;-61
2021/10/07 08:08:55;;;;;;;25.20;5.90;;;;;;;7.12;50.37;101611.21;116537;1200;22339;-60
2021/10/07 08:11:23;;;;;;;23.20;4.90;;;;;;;7.22;49.66;101610.57;116754;1200;22334;-61
2021/10/07 08:13:51;;;;;;;26.90;5.90;;;;;;;7.32;48.61;101610.78;116214;1200;142709;-61
2021/10/07 08:16:19;;;;;;;11.30;5.00;;;;;;;7.39;48.18;101606.41;116800;1199;22301;-60
2021/10/07 08:18:48;;;;;;;10.60;3.90;;;;;;;7.47;48.24;101602.48;116668;1199;139623;-61
2021/10/07 08:21:17;;;;;;;12.50;4.00;;;;;;;7.58;47.90;101604.02;116714;1199;22297;-59
2021/10/07 08:23:47;;;;;;;9.40;3.60;;;;;;;7.65;47.19;101596.73;116786;1200;23101;-60
2021/10/07 08:26:16;;;;;;;10.30;3.40;;;;;;;7.73;47.25;101599.25;116711;1199;137313;-60
2021/10/07 08:28:44;;;;;;;14.10;4.10;;;;;;;7.79;47.02;101597.71;116777;1199;22436;-60
2021/10/07 08:31:13;;;;;;;9.40;3.30;;;;;;;7.87;46.41;101591.55;116726;1200;138507;-60
2021/10/07 08:33:41;;;;;;;23.20;3.90;;;;;;;7.97;46.23;101582.02;116768;1199;22306;-60
2021/10/07 08:36:09;;;;;;;8.80;3.20;;;;;;;8.06;45.11;101579.38;116720;1200;138381;-60
2021/10/07 08:38:37;;;;;;;7.40;4.10;;;;;;;8.10;43.81;101578.61;116733;1200;22334;-61
2021/10/07 08:41:08;;;;;;;15.50;7.30;;;;;;;8.09;44.95;101575.30;116790;1200;22308;-61
2021/10/07 08:43:38;;;;;;;10.00;3.20;;;;;;;8.13;44.36;101575.16;116710;1200;137560;-61
2021/10/07 08:46:09;;;;;;;8.80;3.10;;;;;;;8.19;44.66;101572.30;116786;1199;23210;-61
2021/10/07 08:48:38;;;;;;;26.70;11.40;;;;;;;8.24;44.58;101572.02;116701;1200;137278;-60
2021/10/07 08:51:06;;;;;;;44.40;19.80;;;;;;;8.29;43.74;101567.59;116828;1199;22321;-60
2021/10/07 08:53:36;;;;;;;57.60;27.80;;;;;;;8.31;44.34;101565.79;116653;1200;22250;-62
2021/10/07 08:56:06;;;;;;;16.20;6.40;;;;;;;8.37;43.96;101560.77;116644;1199;137615;-62
2021/10/07 08:58:34;;;;;;;16.10;5.40;;;;;;;8.46;44.03;101562.00;116700;1199;22256;-61
2021/10/07 09:01:04;;;;;;;15.00;7.50;;;;;;;8.53;43.57;101558.50;116757;1199;137815;-62
2021/10/07 09:03:39;;;;;;;9.70;3.60;;;;;;;8.60;42.74;101558.11;116853;1199;22958;-60
2021/10/07 09:06:12;;;;;;;7.80;3.20;;;;;;;8.64;42.02;101557.77;116740;1200;137628;-62
2021/10/07 09:08:47;;;;;;;16.60;6.80;;;;;;;8.63;41.91;101555.71;116790;1199;22343;-60
2021/10/07 09:11:28;;;;;;;17.70;6.50;;;;;;;8.63;42.34;101558.06;116825;1199;22407;-60
2021/10/07 09:14:01;;;;;;;9.10;3.80;;;;;;;8.68;42.88;101555.96;116758;1199;137558;-60
2021/10/07 09:16:43;;;;;;;8.50;2.70;;;;;;;8.76;42.55;101550.90;116805;1199;22329;-62
2021/10/07 09:19:22;;;;;;;7.90;4.10;;;;;;;8.81;42.63;101548.79;116774;1199;137799;-59
2021/10/07 09:21:53;;;;;;;21.80;8.50;;;;;;;8.84;41.84;101549.16;116775;1199;22438;-62
2021/10/07 09:24:30;;;;;;;5.40;2.80;;;;;;;8.85;41.64;101545.03;116546;1200;138152;-61
2021/10/07 09:27:25;;;;;;;15.40;6.20;;;;;;;8.89;41.90;101542.84;116852;1199;22319;-59
2021/10/07 09:29:56;;;;;;;8.00;5.20;;;;;;;8.94;42.23;101542.33;116683;1199;138005;-59
2021/10/07 09:32:31;;;;;;;6.70;3.00;;;;;;;9.02;42.25;101543.27;116845;1199;22253;-59
2021/10/07 09:35:01;;;;;;;10.00;4.70;;;;;;;9.09;42.02;101544.95;116815;1199;22287;-59
2021/10/07 09:37:36;;;;;;;28.50;13.40;;;;;;;9.15;42.23;101543.52;116732;1193;137819;-59
2021/10/07 09:40:10;;;;;;;15.30;5.20;;;;;;;9.20;41.94;101546.46;116856;1200;22323;-59
2021/10/07 09:42:46;;;;;;;7.00;3.50;;;;;;;9.26;42.17;101548.20;116710;1199;137135;-58
2021/10/07 09:45:34;;;;;;;12.60;3.90;;;;;;;9.30;41.64;101550.27;116862;1200;22318;-59
2021/10/07 09:48:04;;;;;;;8.30;3.70;;;;;;;9.30;41.43;101550.81;116682;1199;137394;-59
2021/10/07 09:50:36;;;;;;;22.50;7.60;;;;;;;9.28;41.36;101550.80;116810;1199;22262;-59
2021/10/07 09:53:06;;;;;;;46.00;17.60;;;;;;;9.26;41.61;101547.10;116898;1199;23113;-58
2021/10/07 09:55:35;;;;;;;31.70;11.70;;;;;;;9.26;41.96;101544.67;116712;1199;137915;-59
2021/10/07 09:58:05;;;;;;;38.70;16.20;;;;;;;9.27;41.76;101540.63;116817;1200;22994;-59
2021/10/07 10:00:37;;;;;;;10.50;5.70;;;;;;;9.31;42.51;101537.19;116709;1199;137501;-58
2021/10/07 10:03:06;;;;;;;11.00;4.30;;;;;;;9.40;42.16;101531.66;116781;1199;22241;-59
2021/10/07 10:05:35;;;;;;;14.10;4.50;;;;;;;9.46;42.03;101524.30;116841;1199;22275;-59
2021/10/07 10:08:08;;;;;;;17.40;7.50;;;;;;;9.54;42.18;101522.44;116718;1199;138603;-59
2021/10/07 10:10:37;;;;;;;9.30;3.30;;;;;;;9.67;42.29;101523.13;116724;1200;22323;-59
2021/10/07 10:13:05;;;;;;;8.30;2.10;;;;;;;9.80;40.64;101520.21;116734;1199;137798;-59
2021/10/07 10:15:34;;;;;;;11.10;2.90;;;;;;;9.86;39.43;101516.42;116827;1199;22328;-59
2021/10/07 10:18:10;;;;;;;8.00;2.10;;;;;;;9.90;39.76;101515.60;116726;1200;137318;-59
2021/10/07 10:20:45;;;;;;;8.10;2.20;;;;;;;9.97;39.81;101513.14;116852;1199;22474;-59
2021/10/07 10:23:18;;;;;;;10.10;4.90;;;;;;;10.06;37.74;101509.70;116767;1200;22351;-59
2021/10/07 10:26:06;;;;;;;7.30;3.00;;;;;;;10.08;38.44;101507.36;116583;1200;138024;-60
2021/10/07 10:28:41;;;;;;;5.10;2.90;;;;;;;10.12;37.41;101507.01;116869;1199;22346;-59
2021/10/07 10:31:11;;;;;;;21.30;9.00;;;;;;;10.11;38.22;101502.90;116707;1200;137713;-59
2021/10/07 10:33:43;;;;;;;9.20;2.90;;;;;;;10.14;38.12;101501.06;116829;1199;22292;-59
2021/10/07 10:36:23;;;;;;;8.10;2.40;;;;;;;10.18;38.02;101496.77;116715;1200;138930;-59
2021/10/07 10:39:04;;;;;;;8.70;5.70;;;;;;;10.20;37.72;101500.53;116561;1200;26714;-60
2021/10/07 10:41:59;;;;;;;40.30;7.30;;;;;;;10.24;37.11;101500.88;116724;1200;22329;-60
2021/10/07 10:44:28;;;;;;;4.80;2.80;;;;;;;10.26;37.60;101497.34;116727;1200;137355;-60
2021/10/07 10:47:05;;;;;;;6.70;2.20;;;;;;;10.29;37.00;101494.71;116776;1195;22484;-60
2021/10/07 10:49:41;;;;;;;15.80;6.30;;;;;;;10.31;37.12;101491.06;116627;1200;137945;-60
2021/10/07 10:52:17;;;;;;;14.30;4.70;;;;;;;10.33;37.06;101493.04;116693;1200;23389;-59
2021/10/07 10:57:01;;;;;;;2.60;1.80;;;;;;;10.40;36.77;101484.66;110867;1216;544803;-60
2021/10/07 10:59:30;;;;;;;10.10;3.00;;;;;;;10.40;36.59;101480.51;112032;1196;24073;-60
2021/10/07 11:02:21;;;;;;;40.30;14.20;;;;;;;10.44;36.98;101479.55;111781;1203;136911;-60
2021/10/07 11:04:50;;;;;;;18.60;5.40;;;;;;;10.52;36.90;101476.36;116269;1203;22306;-60
2021/10/07 11:07:20;;;;;;;14.50;3.10;;;;;;;10.58;36.17;101480.51;116104;1203;137567;-60
2021/10/07 11:10:08;;;;;;;9.80;2.70;;;;;;;10.61;35.51;101481.39;116192;1203;23178;-60
2021/10/07 11:12:40;;;;;;;8.50;2.80;;;;;;;10.60;35.24;101478.96;116017;1202;136988;-60
2021/10/07 11:15:11;;;;;;;6.70;2.50;;;;;;;10.59;36.23;101476.65;116123;1204;23086;-60
2021/10/07 11:17:42;;;;;;;13.20;3.00;;;;;;;10.60;36.14;101470.11;115991;1203;22248;-60
2021/10/07 11:20:18;;;;;;;7.50;2.40;;;;;;;10.64;36.05;101468.86;116138;1201;138726;-60
2021/10/07 11:23:02;;;;;;;5.80;2.50;;;;;;;10.71;36.30;101478.39;116467;1201;22386;-60
2021/10/07 11:25:31;;;;;;;6.60;1.80;;;;;;;10.77;35.79;101476.44;116182;1203;137896;-60
2021/10/07 11:27:59;;;;;;;7.90;3.20;;;;;;;10.82;35.69;101478.02;116138;1204;22393;-60
2021/10/07 11:30:35;;;;;;;14.70;5.60;;;;;;;10.86;35.38;101474.27;116215;1204;22293;-61
2021/10/07 11:33:09;;;;;;;8.60;1.90;;;;;;;10.89;35.06;101475.20;116207;1203;137750;-61
2021/10/07 11:35:38;;;;;;;10.30;3.10;;;;;;;10.87;34.87;101469.66;116378;1203;22361;-60
2021/10/07 11:38:13;;;;;;;10.90;3.20;;;;;;;10.87;34.72;101471.96;116266;1202;137083;-60
2021/10/07 11:40:51;;;;;;;11.00;2.40;;;;;;;10.88;35.02;101473.23;116251;1203;22397;-60